DLH1714 EDDM-LATI
Flight info
| Callsign | DLH1714 |
|---|---|
| Flight time | 1h 17m |
| Altitude | 35000 |
| Route | VAVOR3S VAVOR M867 RADIZ DCT GIMIX DCT SABAD DCT NERRA DCT BALHA DCT MOKUN DCT TIBRI DCT BIGLO L187 TAZ DCT PETAK |
| Aircraft | A320/M-SDE3FGHIRWY/LB1 |
Departure
| Time | 2026-05-07 19:26 |
|---|---|
| Airport | Munich Airport (EDDM) |
Arrival
| Time | 2026-05-07 20:43 |
|---|---|
| Airport | Tirana International Airport Mother Teresa (LATI) |
| Time | Latitude | Longitude | Altitude | Speed | Heading |
|---|---|---|---|---|---|
| 2026-05-07 19:02 | 48.35510 | 11.80253 | 1475 ft | 0 kts | 83° |
| 2026-05-07 19:14 | 48.35508 | 11.80221 | 1481 ft | 4 kts | 83° |
| 2026-05-07 19:14 | 48.35504 | 11.80180 | 1474 ft | 4 kts | 85° |
| 2026-05-07 19:15 | 48.35509 | 11.80154 | 1471 ft | 4 kts | 162° |
| 2026-05-07 19:15 | 48.35530 | 11.80148 | 1475 ft | 4 kts | 173° |
| 2026-05-07 19:15 | 48.35536 | 11.80147 | 1477 ft | 0 kts | 173° |
| 2026-05-07 19:20 | 48.35513 | 11.80151 | 1471 ft | 11 kts | 173° |
| 2026-05-07 19:20 | 48.35388 | 11.80184 | 1481 ft | 21 kts | 166° |
| 2026-05-07 19:21 | 48.35241 | 11.80213 | 1480 ft | 22 kts | 179° |
| 2026-05-07 19:21 | 48.35143 | 11.80063 | 1481 ft | 22 kts | 245° |
| 2026-05-07 19:21 | 48.35091 | 11.79845 | 1476 ft | 23 kts | 254° |
| 2026-05-07 19:21 | 48.35044 | 11.79672 | 1483 ft | 16 kts | 210° |
| 2026-05-07 19:22 | 48.34939 | 11.79680 | 1478 ft | 11 kts | 174° |
| 2026-05-07 19:22 | 48.34899 | 11.79686 | 1485 ft | 4 kts | 174° |
| 2026-05-07 19:22 | 48.34849 | 11.79695 | 1482 ft | 15 kts | 171° |
| 2026-05-07 19:22 | 48.34808 | 11.79849 | 1482 ft | 22 kts | 80° |
| 2026-05-07 19:23 | 48.34829 | 11.80094 | 1485 ft | 22 kts | 91° |
| 2026-05-07 19:23 | 48.34748 | 11.80238 | 1483 ft | 18 kts | 168° |
| 2026-05-07 19:23 | 48.34642 | 11.80257 | 1485 ft | 11 kts | 174° |
| 2026-05-07 19:23 | 48.34592 | 11.80266 | 1482 ft | 0 kts | 173° |
| 2026-05-07 19:24 | 48.34569 | 11.80271 | 1480 ft | 14 kts | 173° |
| 2026-05-07 19:25 | 48.34467 | 11.80244 | 1481 ft | 15 kts | 242° |
| 2026-05-07 19:25 | 48.34461 | 11.80196 | 1479 ft | 0 kts | 263° |
| 2026-05-07 19:25 | 48.34454 | 11.80120 | 1485 ft | 25 kts | 262° |
| 2026-05-07 19:26 | 48.34406 | 11.79480 | 1479 ft | 96 kts | 263° |
| 2026-05-07 19:26 | 48.34304 | 11.78173 | 1481 ft | 150 kts | 263° |
| 2026-05-07 19:26 | 48.34164 | 11.76456 | 1718 ft | 173 kts | 262° |
| 2026-05-07 19:26 | 48.34011 | 11.74679 | 2466 ft | 171 kts | 265° |
| 2026-05-07 19:27 | 48.33889 | 11.72846 | 2949 ft | 185 kts | 265° |
| 2026-05-07 19:27 | 48.33432 | 11.70963 | 3241 ft | 207 kts | 228° |
| 2026-05-07 19:27 | 48.32127 | 11.69951 | 3614 ft | 221 kts | 188° |
| 2026-05-07 19:27 | 48.30573 | 11.69893 | 4294 ft | 225 kts | 177° |
| 2026-05-07 19:28 | 48.29019 | 11.70314 | 5079 ft | 227 kts | 157° |
| 2026-05-07 19:28 | 48.27679 | 11.71583 | 5654 ft | 240 kts | 141° |
| 2026-05-07 19:28 | 48.26310 | 11.73242 | 6033 ft | 260 kts | 144° |
| 2026-05-07 19:28 | 48.24808 | 11.74859 | 6549 ft | 275 kts | 147° |
| 2026-05-07 19:29 | 48.23206 | 11.76493 | 7288 ft | 281 kts | 148° |
| 2026-05-07 19:29 | 48.21620 | 11.78260 | 8086 ft | 287 kts | 143° |
| 2026-05-07 19:29 | 48.20093 | 11.80212 | 8863 ft | 291 kts | 141° |
| 2026-05-07 19:29 | 48.18564 | 11.82239 | 9660 ft | 296 kts | 141° |
| 2026-05-07 19:30 | 48.17018 | 11.84316 | 10363 ft | 303 kts | 141° |
| 2026-05-07 19:30 | 48.15392 | 11.86497 | 10618 ft | 326 kts | 141° |
| 2026-05-07 19:30 | 48.13651 | 11.88817 | 10970 ft | 342 kts | 141° |
| 2026-05-07 19:30 | 48.11854 | 11.91206 | 11619 ft | 348 kts | 141° |
| 2026-05-07 19:31 | 48.10034 | 11.93620 | 12330 ft | 352 kts | 141° |
| 2026-05-07 19:31 | 48.08191 | 11.96058 | 13039 ft | 355 kts | 141° |
| 2026-05-07 19:31 | 48.06331 | 11.98516 | 13737 ft | 359 kts | 141° |
| 2026-05-07 19:31 | 48.04444 | 12.00999 | 14354 ft | 363 kts | 141° |
| 2026-05-07 19:32 | 48.02539 | 12.03498 | 14940 ft | 367 kts | 141° |
| 2026-05-07 19:32 | 48.00611 | 12.06022 | 15534 ft | 370 kts | 141° |
| 2026-05-07 19:32 | 47.98666 | 12.08568 | 16117 ft | 374 kts | 141° |
| 2026-05-07 19:32 | 47.96696 | 12.11142 | 16718 ft | 378 kts | 141° |
| 2026-05-07 19:33 | 47.94709 | 12.13738 | 17297 ft | 382 kts | 141° |
| 2026-05-07 19:33 | 47.92700 | 12.16359 | 17866 ft | 386 kts | 141° |
| 2026-05-07 19:33 | 47.90655 | 12.18978 | 18419 ft | 390 kts | 142° |
| 2026-05-07 19:33 | 47.88577 | 12.21595 | 18912 ft | 393 kts | 142° |
| 2026-05-07 19:34 | 47.86476 | 12.24219 | 19431 ft | 395 kts | 142° |
| 2026-05-07 19:34 | 47.84359 | 12.26854 | 19961 ft | 398 kts | 142° |
| 2026-05-07 19:34 | 47.82944 | 12.28614 | 20314 ft | 399 kts | 142° |
| 2026-05-07 19:34 | 47.80780 | 12.31314 | 20825 ft | 402 kts | 142° |
| 2026-05-07 19:35 | 47.78637 | 12.33995 | 21325 ft | 404 kts | 142° |
| 2026-05-07 19:35 | 47.76508 | 12.36659 | 21808 ft | 407 kts | 142° |
| 2026-05-07 19:35 | 47.74310 | 12.39404 | 22340 ft | 408 kts | 142° |
| 2026-05-07 19:35 | 47.72128 | 12.42125 | 22840 ft | 410 kts | 142° |
| 2026-05-07 19:36 | 47.69961 | 12.44819 | 23314 ft | 413 kts | 142° |
| 2026-05-07 19:36 | 47.67721 | 12.47590 | 23759 ft | 415 kts | 142° |
| 2026-05-07 19:36 | 47.65520 | 12.50302 | 24135 ft | 417 kts | 142° |
| 2026-05-07 19:36 | 47.63278 | 12.53057 | 24514 ft | 420 kts | 142° |
| 2026-05-07 19:37 | 47.61000 | 12.55774 | 24886 ft | 422 kts | 144° |
| 2026-05-07 19:37 | 47.58628 | 12.58440 | 25274 ft | 423 kts | 146° |
| 2026-05-07 19:37 | 47.56274 | 12.60983 | 25641 ft | 425 kts | 146° |
| 2026-05-07 19:37 | 47.53833 | 12.63566 | 25991 ft | 428 kts | 147° |
| 2026-05-07 19:38 | 47.51403 | 12.66136 | 26312 ft | 431 kts | 147° |
| 2026-05-07 19:38 | 47.48962 | 12.68736 | 26644 ft | 434 kts | 147° |
| 2026-05-07 19:38 | 47.46512 | 12.71373 | 27012 ft | 436 kts | 146° |
| 2026-05-07 19:38 | 47.44096 | 12.73992 | 27341 ft | 438 kts | 146° |
| 2026-05-07 19:39 | 47.41637 | 12.76670 | 27683 ft | 441 kts | 146° |
| 2026-05-07 19:39 | 47.39165 | 12.79364 | 27997 ft | 443 kts | 146° |
| 2026-05-07 19:39 | 47.36684 | 12.82061 | 28366 ft | 443 kts | 146° |
| 2026-05-07 19:39 | 47.34199 | 12.84750 | 28784 ft | 444 kts | 147° |
| 2026-05-07 19:40 | 47.31704 | 12.87442 | 29206 ft | 444 kts | 147° |
| 2026-05-07 19:40 | 47.29216 | 12.90122 | 29638 ft | 443 kts | 147° |
| 2026-05-07 19:40 | 47.26724 | 12.92800 | 30047 ft | 443 kts | 147° |
| 2026-05-07 19:40 | 47.24234 | 12.95472 | 30426 ft | 443 kts | 148° |
| 2026-05-07 19:41 | 47.21719 | 12.98171 | 30793 ft | 442 kts | 148° |
| 2026-05-07 19:41 | 47.19239 | 13.00834 | 31164 ft | 441 kts | 148° |
| 2026-05-07 19:41 | 47.16758 | 13.03494 | 31541 ft | 441 kts | 148° |
| 2026-05-07 19:41 | 47.14309 | 13.06111 | 31915 ft | 440 kts | 148° |
| 2026-05-07 19:42 | 47.11836 | 13.08748 | 32294 ft | 439 kts | 149° |
| 2026-05-07 19:42 | 47.09362 | 13.11383 | 32686 ft | 439 kts | 149° |
| 2026-05-07 19:42 | 47.06897 | 13.14007 | 33085 ft | 439 kts | 149° |
| 2026-05-07 19:42 | 47.04427 | 13.16637 | 33485 ft | 438 kts | 149° |
| 2026-05-07 19:43 | 47.01970 | 13.19256 | 33867 ft | 436 kts | 149° |
| 2026-05-07 19:43 | 46.99526 | 13.21859 | 34245 ft | 434 kts | 150° |
| 2026-05-07 19:43 | 46.97091 | 13.24446 | 34593 ft | 431 kts | 149° |
| 2026-05-07 19:43 | 46.94671 | 13.27013 | 34937 ft | 429 kts | 149° |
| 2026-05-07 19:44 | 46.92242 | 13.29578 | 35038 ft | 433 kts | 150° |
| 2026-05-07 19:44 | 46.89782 | 13.32167 | 35063 ft | 439 kts | 150° |
| 2026-05-07 19:44 | 46.84733 | 13.37455 | 35057 ft | 454 kts | 149° |
| 2026-05-07 19:45 | 46.79577 | 13.42876 | 35031 ft | 458 kts | 149° |
| 2026-05-07 19:45 | 46.74407 | 13.48330 | 35056 ft | 459 kts | 150° |
| 2026-05-07 19:46 | 46.69218 | 13.53774 | 35056 ft | 460 kts | 150° |
| 2026-05-07 19:46 | 46.64020 | 13.59212 | 35059 ft | 462 kts | 150° |
| 2026-05-07 19:47 | 46.58727 | 13.64721 | 35058 ft | 474 kts | 150° |
| 2026-05-07 19:47 | 46.53289 | 13.70361 | 35058 ft | 485 kts | 150° |
| 2026-05-07 19:48 | 46.47808 | 13.76206 | 35055 ft | 491 kts | 148° |
| 2026-05-07 19:48 | 46.42417 | 13.82317 | 35053 ft | 492 kts | 147° |
| 2026-05-07 19:49 | 46.37050 | 13.88424 | 35053 ft | 491 kts | 148° |
| 2026-05-07 19:49 | 46.31641 | 13.94445 | 35032 ft | 490 kts | 148° |
| 2026-05-07 19:50 | 46.26211 | 14.00409 | 35032 ft | 490 kts | 149° |
| 2026-05-07 19:50 | 46.20789 | 14.06363 | 35034 ft | 490 kts | 148° |
| 2026-05-07 19:51 | 46.15376 | 14.12327 | 35032 ft | 489 kts | 148° |
| 2026-05-07 19:51 | 46.09973 | 14.18272 | 35038 ft | 489 kts | 148° |
| 2026-05-07 19:52 | 46.04561 | 14.24199 | 35026 ft | 488 kts | 149° |
| 2026-05-07 19:52 | 45.99147 | 14.30108 | 35032 ft | 488 kts | 149° |
| 2026-05-07 19:53 | 45.93740 | 14.36003 | 35017 ft | 488 kts | 149° |
| 2026-05-07 19:53 | 45.88323 | 14.41895 | 35042 ft | 488 kts | 149° |
| 2026-05-07 19:54 | 45.82914 | 14.47755 | 35042 ft | 487 kts | 149° |
| 2026-05-07 19:54 | 45.77501 | 14.53593 | 35051 ft | 487 kts | 149° |
| 2026-05-07 19:55 | 45.72097 | 14.59430 | 35048 ft | 487 kts | 149° |
| 2026-05-07 19:55 | 45.66685 | 14.65252 | 35042 ft | 487 kts | 149° |
| 2026-05-07 19:56 | 45.61276 | 14.71057 | 35026 ft | 486 kts | 149° |
| 2026-05-07 19:56 | 45.55910 | 14.76803 | 35034 ft | 486 kts | 149° |
| 2026-05-07 19:57 | 45.50505 | 14.82584 | 35037 ft | 486 kts | 149° |
| 2026-05-07 19:57 | 45.45089 | 14.88358 | 35042 ft | 486 kts | 149° |
| 2026-05-07 19:58 | 45.39723 | 14.94234 | 35040 ft | 487 kts | 148° |
| 2026-05-07 19:58 | 45.34396 | 15.00168 | 35034 ft | 487 kts | 148° |
| 2026-05-07 19:59 | 45.29057 | 15.06078 | 35034 ft | 487 kts | 148° |
| 2026-05-07 19:59 | 45.23695 | 15.11945 | 35044 ft | 487 kts | 148° |
| 2026-05-07 20:00 | 45.18325 | 15.17784 | 35042 ft | 487 kts | 148° |
| 2026-05-07 20:00 | 45.12953 | 15.23629 | 35035 ft | 487 kts | 149° |
| 2026-05-07 20:01 | 45.07590 | 15.29466 | 35037 ft | 487 kts | 149° |
| 2026-05-07 20:01 | 45.02211 | 15.35308 | 35046 ft | 487 kts | 149° |
| 2026-05-07 20:02 | 44.96832 | 15.41133 | 35044 ft | 487 kts | 149° |
| 2026-05-07 20:02 | 44.91445 | 15.46939 | 35031 ft | 487 kts | 149° |
| 2026-05-07 20:03 | 44.86062 | 15.52740 | 35044 ft | 487 kts | 149° |
| 2026-05-07 20:03 | 44.80678 | 15.58530 | 35047 ft | 487 kts | 149° |
| 2026-05-07 20:04 | 44.75289 | 15.64301 | 35063 ft | 487 kts | 149° |
| 2026-05-07 20:04 | 44.69892 | 15.70064 | 35041 ft | 487 kts | 149° |
| 2026-05-07 20:05 | 44.64504 | 15.75816 | 35040 ft | 487 kts | 149° |
| 2026-05-07 20:05 | 44.59106 | 15.81556 | 35047 ft | 487 kts | 149° |
| 2026-05-07 20:06 | 44.53700 | 15.87289 | 35064 ft | 487 kts | 149° |
| 2026-05-07 20:06 | 44.48292 | 15.93009 | 35071 ft | 487 kts | 149° |
| 2026-05-07 20:07 | 44.42881 | 15.98724 | 35037 ft | 488 kts | 150° |
| 2026-05-07 20:07 | 44.37459 | 16.04443 | 35054 ft | 488 kts | 150° |
| 2026-05-07 20:08 | 44.32068 | 16.10107 | 35060 ft | 488 kts | 150° |
| 2026-05-07 20:08 | 44.26638 | 16.15800 | 35064 ft | 488 kts | 150° |
| 2026-05-07 20:09 | 44.21205 | 16.21484 | 35039 ft | 488 kts | 150° |
| 2026-05-07 20:10 | 44.13050 | 16.29998 | 35068 ft | 489 kts | 150° |
| 2026-05-07 20:10 | 44.07603 | 16.35669 | 35080 ft | 488 kts | 151° |
| 2026-05-07 20:11 | 44.02162 | 16.41311 | 35086 ft | 488 kts | 151° |
| 2026-05-07 20:11 | 43.96717 | 16.46949 | 35071 ft | 488 kts | 151° |
| 2026-05-07 20:12 | 43.91263 | 16.52590 | 35072 ft | 489 kts | 151° |
| 2026-05-07 20:12 | 43.85813 | 16.58213 | 35081 ft | 488 kts | 151° |
| 2026-05-07 20:13 | 43.80358 | 16.63819 | 35083 ft | 488 kts | 151° |
| 2026-05-07 20:13 | 43.74901 | 16.69417 | 35052 ft | 488 kts | 151° |
| 2026-05-07 20:14 | 43.69435 | 16.75007 | 35078 ft | 489 kts | 151° |
| 2026-05-07 20:14 | 43.63958 | 16.80598 | 35088 ft | 489 kts | 151° |
| 2026-05-07 20:15 | 43.58480 | 16.86174 | 35097 ft | 489 kts | 152° |
| 2026-05-07 20:15 | 43.53001 | 16.91738 | 35105 ft | 489 kts | 152° |
| 2026-05-07 20:16 | 43.47521 | 16.97297 | 35107 ft | 489 kts | 152° |
| 2026-05-07 20:16 | 43.42961 | 17.01908 | 35107 ft | 489 kts | 152° |
| 2026-05-07 20:17 | 43.37489 | 17.07426 | 35093 ft | 490 kts | 151° |
| 2026-05-07 20:17 | 43.32000 | 17.12960 | 35098 ft | 490 kts | 151° |
| 2026-05-07 20:18 | 43.26506 | 17.18492 | 35071 ft | 490 kts | 151° |
| 2026-05-07 20:18 | 43.20999 | 17.24009 | 35081 ft | 490 kts | 151° |
| 2026-05-07 20:19 | 43.15496 | 17.29510 | 35092 ft | 490 kts | 151° |
| 2026-05-07 20:19 | 43.09978 | 17.35013 | 35094 ft | 490 kts | 151° |
| 2026-05-07 20:20 | 43.04461 | 17.40500 | 35065 ft | 490 kts | 151° |
| 2026-05-07 20:20 | 42.98941 | 17.45985 | 35063 ft | 491 kts | 150° |
| 2026-05-07 20:21 | 42.93422 | 17.51474 | 35064 ft | 492 kts | 149° |
| 2026-05-07 20:21 | 42.88628 | 17.58309 | 35067 ft | 509 kts | 129° |
| 2026-05-07 20:22 | 42.84778 | 17.66442 | 35071 ft | 511 kts | 128° |
| 2026-05-07 20:22 | 42.80928 | 17.74575 | 35039 ft | 511 kts | 128° |
| 2026-05-07 20:23 | 42.77059 | 17.82682 | 35051 ft | 511 kts | 127° |
| 2026-05-07 20:23 | 42.73184 | 17.90798 | 35063 ft | 511 kts | 127° |
| 2026-05-07 20:24 | 42.69320 | 17.98874 | 35063 ft | 500 kts | 128° |
| 2026-05-07 20:24 | 42.67449 | 18.02777 | 35074 ft | 487 kts | 128° |
| 2026-05-07 20:24 | 42.65606 | 18.06609 | 35077 ft | 483 kts | 128° |
| 2026-05-07 20:25 | 42.61905 | 18.14258 | 34843 ft | 492 kts | 128° |
| 2026-05-07 20:25 | 42.60010 | 18.18161 | 34117 ft | 500 kts | 128° |
| 2026-05-07 20:25 | 42.58082 | 18.22138 | 32942 ft | 508 kts | 128° |
| 2026-05-07 20:25 | 42.56133 | 18.26166 | 31891 ft | 513 kts | 127° |
| 2026-05-07 20:26 | 42.54187 | 18.30173 | 31489 ft | 502 kts | 128° |
| 2026-05-07 20:26 | 42.52270 | 18.34032 | 31358 ft | 485 kts | 128° |
| 2026-05-07 20:26 | 42.50381 | 18.37744 | 31086 ft | 473 kts | 129° |
| 2026-05-07 20:26 | 42.48505 | 18.41363 | 30641 ft | 466 kts | 130° |
| 2026-05-07 20:27 | 42.46640 | 18.44935 | 30170 ft | 461 kts | 130° |
| 2026-05-07 20:27 | 42.44823 | 18.48422 | 29614 ft | 457 kts | 129° |
| 2026-05-07 20:27 | 42.42988 | 18.51905 | 29063 ft | 451 kts | 130° |
| 2026-05-07 20:27 | 42.41155 | 18.55325 | 28500 ft | 447 kts | 130° |
| 2026-05-07 20:28 | 42.39340 | 18.58714 | 27999 ft | 443 kts | 130° |
| 2026-05-07 20:28 | 42.37556 | 18.62088 | 27501 ft | 438 kts | 129° |
| 2026-05-07 20:28 | 42.35804 | 18.65436 | 27000 ft | 434 kts | 129° |
| 2026-05-07 20:28 | 42.34075 | 18.68757 | 26504 ft | 430 kts | 129° |
| 2026-05-07 20:29 | 42.32368 | 18.72044 | 26015 ft | 426 kts | 129° |
| 2026-05-07 20:29 | 42.30672 | 18.75309 | 25515 ft | 422 kts | 129° |
| 2026-05-07 20:29 | 42.28973 | 18.78510 | 25036 ft | 416 kts | 133° |
| 2026-05-07 20:29 | 42.26985 | 18.81270 | 24564 ft | 406 kts | 145° |
| 2026-05-07 20:30 | 42.24759 | 18.83568 | 24070 ft | 401 kts | 147° |
| 2026-05-07 20:30 | 42.22538 | 18.85831 | 23581 ft | 399 kts | 146° |
| 2026-05-07 20:30 | 42.20333 | 18.88080 | 23047 ft | 396 kts | 146° |
| 2026-05-07 20:30 | 42.18143 | 18.90318 | 22437 ft | 395 kts | 146° |
| 2026-05-07 20:31 | 42.15954 | 18.92552 | 21855 ft | 394 kts | 146° |
| 2026-05-07 20:31 | 42.13776 | 18.94771 | 21348 ft | 391 kts | 146° |
| 2026-05-07 20:31 | 42.11617 | 18.96973 | 20885 ft | 388 kts | 146° |
| 2026-05-07 20:31 | 42.09474 | 18.99150 | 20438 ft | 384 kts | 146° |
| 2026-05-07 20:32 | 42.07348 | 19.01305 | 19982 ft | 381 kts | 146° |
| 2026-05-07 20:32 | 42.05238 | 19.03439 | 19552 ft | 378 kts | 146° |
| 2026-05-07 20:32 | 42.03147 | 19.05557 | 19129 ft | 375 kts | 146° |
| 2026-05-07 20:32 | 42.01073 | 19.07658 | 18695 ft | 372 kts | 146° |
| 2026-05-07 20:33 | 41.99010 | 19.09746 | 18252 ft | 370 kts | 146° |
| 2026-05-07 20:33 | 41.96963 | 19.11817 | 17789 ft | 367 kts | 146° |
| 2026-05-07 20:33 | 41.94936 | 19.13865 | 17252 ft | 363 kts | 146° |
| 2026-05-07 20:33 | 41.92922 | 19.15900 | 16776 ft | 361 kts | 146° |
| 2026-05-07 20:34 | 41.90922 | 19.17922 | 16361 ft | 358 kts | 146° |
| 2026-05-07 20:34 | 41.88940 | 19.19922 | 15940 ft | 355 kts | 146° |
| 2026-05-07 20:34 | 41.86973 | 19.21902 | 15523 ft | 352 kts | 146° |
| 2026-05-07 20:34 | 41.85020 | 19.23864 | 15102 ft | 349 kts | 146° |
| 2026-05-07 20:35 | 41.83082 | 19.25809 | 14706 ft | 347 kts | 146° |
| 2026-05-07 20:35 | 41.81155 | 19.27743 | 14320 ft | 344 kts | 146° |
| 2026-05-07 20:35 | 41.79251 | 19.29655 | 13934 ft | 341 kts | 147° |
| 2026-05-07 20:35 | 41.77407 | 19.31655 | 13496 ft | 342 kts | 138° |
| 2026-05-07 20:36 | 41.75858 | 19.34061 | 13086 ft | 340 kts | 133° |
| 2026-05-07 20:36 | 41.74354 | 19.36480 | 12668 ft | 336 kts | 133° |
| 2026-05-07 20:36 | 41.72860 | 19.38872 | 12260 ft | 333 kts | 133° |
| 2026-05-07 20:36 | 41.71377 | 19.41238 | 11848 ft | 330 kts | 133° |
| 2026-05-07 20:37 | 41.69909 | 19.43571 | 11518 ft | 321 kts | 133° |
| 2026-05-07 20:37 | 41.68541 | 19.45754 | 11280 ft | 302 kts | 133° |
| 2026-05-07 20:37 | 41.67209 | 19.47875 | 10750 ft | 295 kts | 133° |
| 2026-05-07 20:37 | 41.65878 | 19.49989 | 10153 ft | 292 kts | 133° |
| 2026-05-07 20:38 | 41.64679 | 19.52155 | 9526 ft | 291 kts | 121° |
| 2026-05-07 20:38 | 41.64015 | 19.54661 | 8872 ft | 293 kts | 103° |
| 2026-05-07 20:38 | 41.63973 | 19.57440 | 8069 ft | 298 kts | 87° |
| 2026-05-07 20:38 | 41.64190 | 19.60166 | 7298 ft | 299 kts | 87° |
| 2026-05-07 20:39 | 41.64377 | 19.62969 | 6523 ft | 297 kts | 94° |
| 2026-05-07 20:39 | 41.63988 | 19.65583 | 5745 ft | 288 kts | 116° |
| 2026-05-07 20:39 | 41.62879 | 19.67754 | 4996 ft | 282 kts | 138° |
| 2026-05-07 20:39 | 41.61261 | 19.69158 | 4278 ft | 277 kts | 160° |
| 2026-05-07 20:40 | 41.59412 | 19.69685 | 3616 ft | 271 kts | 173° |
| 2026-05-07 20:40 | 41.57546 | 19.69924 | 3057 ft | 265 kts | 173° |
| 2026-05-07 20:40 | 41.55756 | 19.70152 | 2686 ft | 252 kts | 173° |
| 2026-05-07 20:40 | 41.54056 | 19.70378 | 2358 ft | 240 kts | 173° |
| 2026-05-07 20:41 | 41.52438 | 19.70595 | 2050 ft | 225 kts | 174° |
| 2026-05-07 20:41 | 41.50936 | 19.70795 | 1753 ft | 211 kts | 173° |
| 2026-05-07 20:41 | 41.49516 | 19.70985 | 1505 ft | 198 kts | 173° |
| 2026-05-07 20:41 | 41.48196 | 19.71163 | 1304 ft | 183 kts | 173° |
| 2026-05-07 20:42 | 41.46962 | 19.71326 | 1033 ft | 175 kts | 174° |
| 2026-05-07 20:42 | 41.45775 | 19.71473 | 762 ft | 166 kts | 173° |
| 2026-05-07 20:42 | 41.44661 | 19.71640 | 540 ft | 157 kts | 174° |
| 2026-05-07 20:42 | 41.43610 | 19.71771 | 352 ft | 148 kts | 174° |
| 2026-05-07 20:43 | 41.42605 | 19.71907 | 153 ft | 143 kts | 174° |
| 2026-05-07 20:43 | 41.41717 | 19.72022 | 124 ft | 107 kts | 174° |
| 2026-05-07 20:43 | 41.41145 | 19.72102 | 130 ft | 60 kts | 174° |
| 2026-05-07 20:43 | 41.40789 | 19.72147 | 133 ft | 36 kts | 175° |
| 2026-05-07 20:44 | 41.40679 | 19.72087 | 133 ft | 17 kts | 252° |
| 2026-05-07 20:44 | 41.40647 | 19.71919 | 132 ft | 20 kts | 256° |
| 2026-05-07 20:44 | 41.40642 | 19.71794 | 132 ft | 11 kts | 301° |
| 2026-05-07 20:44 | 41.40708 | 19.71766 | 132 ft | 14 kts | 354° |
| 2026-05-07 20:45 | 41.40865 | 19.71745 | 131 ft | 26 kts | 354° |
| 2026-05-07 20:45 | 41.41034 | 19.71706 | 128 ft | 28 kts | 353° |
| 2026-05-07 20:45 | 41.41220 | 19.71677 | 128 ft | 23 kts | 356° |
| 2026-05-07 20:45 | 41.41333 | 19.71667 | 128 ft | 10 kts | 355° |
| 2026-05-07 20:46 | 41.41392 | 19.71661 | 124 ft | 10 kts | 355° |
| 2026-05-07 20:46 | 41.41447 | 19.71654 | 126 ft | 9 kts | 354° |
| 2026-05-07 20:46 | 41.41508 | 19.71647 | 125 ft | 8 kts | 355° |
| 2026-05-07 20:46 | 41.41569 | 19.71635 | 125 ft | 13 kts | 351° |
| 2026-05-07 20:47 | 41.41727 | 19.71612 | 125 ft | 24 kts | 353° |
| 2026-05-07 20:47 | 41.41888 | 19.71589 | 122 ft | 23 kts | 354° |
| 2026-05-07 20:47 | 41.41928 | 19.71583 | 121 ft | 4 kts | 354° |
| 2026-05-07 20:47 | 41.41954 | 19.71575 | 122 ft | 1 kts | 324° |
| 2026-05-07 20:48 | 41.41951 | 19.71545 | 122 ft | 7 kts | 267° |
| 2026-05-07 20:48 | 41.41949 | 19.71515 | 123 ft | 0 kts | 265° |
| 2026-05-07 20:48 | 41.41949 | 19.71514 | 123 ft | 0 kts | 265° |